sensor_id;sensor_type;location;lat;lon;timestamp;temperature;humidity
12164;DHT22;6145;50.192;10.064;2022-09-06T00:01:51;21.10;50.00
12164;DHT22;6145;50.192;10.064;2022-09-06T00:04:18;21.00;50.00
12164;DHT22;6145;50.192;10.064;2022-09-06T00:06:44;21.00;50.00
12164;DHT22;6145;50.192;10.064;2022-09-06T00:09:11;20.90;49.90
12164;DHT22;6145;50.192;10.064;2022-09-06T00:11:38;20.90;50.00
12164;DHT22;6145;50.192;10.064;2022-09-06T00:14:05;20.90;50.10
12164;DHT22;6145;50.192;10.064;2022-09-06T00:16:33;20.90;50.20
12164;DHT22;6145;50.192;10.064;2022-09-06T00:19:03;20.80;50.20
12164;DHT22;6145;50.192;10.064;2022-09-06T00:21:30;20.80;50.20
12164;DHT22;6145;50.192;10.064;2022-09-06T00:23:56;20.70;50.30
12164;DHT22;6145;50.192;10.064;2022-09-06T00:26:23;20.70;50.20
12164;DHT22;6145;50.192;10.064;2022-09-06T00:28:50;20.70;50.30
12164;DHT22;6145;50.192;10.064;2022-09-06T00:31:19;20.70;50.30
12164;DHT22;6145;50.192;10.064;2022-09-06T00:33:47;20.60;50.20
12164;DHT22;6145;50.192;10.064;2022-09-06T00:36:15;20.60;50.40
12164;DHT22;6145;50.192;10.064;2022-09-06T00:38:42;20.60;50.50
12164;DHT22;6145;50.192;10.064;2022-09-06T00:41:11;20.50;50.70
12164;DHT22;6145;50.192;10.064;2022-09-06T00:43:38;20.50;50.80
12164;DHT22;6145;50.192;10.064;2022-09-06T00:46:07;20.50;50.70
12164;DHT22;6145;50.192;10.064;2022-09-06T00:48:35;20.40;50.70
12164;DHT22;6145;50.192;10.064;2022-09-06T00:51:07;20.40;50.60
12164;DHT22;6145;50.192;10.064;2022-09-06T00:53:34;20.40;50.70
12164;DHT22;6145;50.192;10.064;2022-09-06T00:56:01;20.30;50.90
12164;DHT22;6145;50.192;10.064;2022-09-06T00:58:28;20.30;51.00
12164;DHT22;6145;50.192;10.064;2022-09-06T01:00:55;20.30;51.00
12164;DHT22;6145;50.192;10.064;2022-09-06T01:03:22;20.20;51.00
12164;DHT22;6145;50.192;10.064;2022-09-06T01:05:59;20.20;51.10
12164;DHT22;6145;50.192;10.064;2022-09-06T01:08:38;20.20;51.10
12164;DHT22;6145;50.192;10.064;2022-09-06T01:11:22;20.20;51.20
12164;DHT22;6145;50.192;10.064;2022-09-06T01:13:59;20.10;51.00
12164;DHT22;6145;50.192;10.064;2022-09-06T01:16:33;20.10;51.10
12164;DHT22;6145;50.192;10.064;2022-09-06T01:22:08;20.00;51.40
12164;DHT22;6145;50.192;10.064;2022-09-06T01:25:04;20.00;51.60
12164;DHT22;6145;50.192;10.064;2022-09-06T01:28:01;19.90;51.50
12164;DHT22;6145;50.192;10.064;2022-09-06T01:30:37;19.90;51.90
12164;DHT22;6145;50.192;10.064;2022-09-06T01:33:11;19.80;52.00
12164;DHT22;6145;50.192;10.064;2022-09-06T01:35:44;19.80;52.00
12164;DHT22;6145;50.192;10.064;2022-09-06T01:38:13;19.80;52.00
12164;DHT22;6145;50.192;10.064;2022-09-06T01:40:41;19.80;52.10
12164;DHT22;6145;50.192;10.064;2022-09-06T01:43:11;19.70;52.20
12164;DHT22;6145;50.192;10.064;2022-09-06T01:45:45;19.80;52.90
12164;DHT22;6145;50.192;10.064;2022-09-06T01:48:22;19.70;52.30
12164;DHT22;6145;50.192;10.064;2022-09-06T01:50:57;19.70;52.40
12164;DHT22;6145;50.192;10.064;2022-09-06T01:53:44;19.70;52.40
12164;DHT22;6145;50.192;10.064;2022-09-06T01:56:19;19.70;52.50
12164;DHT22;6145;50.192;10.064;2022-09-06T01:59:10;19.70;52.60
12164;DHT22;6145;50.192;10.064;2022-09-06T02:01:44;19.60;52.50
12164;DHT22;6145;50.192;10.064;2022-09-06T02:04:19;19.60;52.70
12164;DHT22;6145;50.192;10.064;2022-09-06T02:06:51;19.60;52.70
12164;DHT22;6145;50.192;10.064;2022-09-06T02:09:22;19.60;52.80
12164;DHT22;6145;50.192;10.064;2022-09-06T02:11:52;19.50;52.70
12164;DHT22;6145;50.192;10.064;2022-09-06T02:14:24;19.50;52.90
12164;DHT22;6145;50.192;10.064;2022-09-06T02:16:54;19.50;53.00
12164;DHT22;6145;50.192;10.064;2022-09-06T02:19:27;19.50;53.00
12164;DHT22;6145;50.192;10.064;2022-09-06T02:21:57;19.50;53.00
12164;DHT22;6145;50.192;10.064;2022-09-06T02:24:29;19.50;53.00
12164;DHT22;6145;50.192;10.064;2022-09-06T02:26:56;19.40;53.00
12164;DHT22;6145;50.192;10.064;2022-09-06T02:29:25;19.40;53.20
12164;DHT22;6145;50.192;10.064;2022-09-06T02:31:55;19.40;53.20
12164;DHT22;6145;50.192;10.064;2022-09-06T02:34:24;19.40;53.20
12164;DHT22;6145;50.192;10.064;2022-09-06T02:36:51;19.40;53.20
12164;DHT22;6145;50.192;10.064;2022-09-06T02:39:17;19.40;53.20
12164;DHT22;6145;50.192;10.064;2022-09-06T02:41:45;19.30;53.30
12164;DHT22;6145;50.192;10.064;2022-09-06T02:44:13;19.30;53.40
12164;DHT22;6145;50.192;10.064;2022-09-06T02:46:41;19.30;53.50
12164;DHT22;6145;50.192;10.064;2022-09-06T02:49:08;19.20;53.60
12164;DHT22;6145;50.192;10.064;2022-09-06T02:51:38;19.20;53.60
12164;DHT22;6145;50.192;10.064;2022-09-06T02:54:05;19.20;53.60
12164;DHT22;6145;50.192;10.064;2022-09-06T02:56:33;19.20;53.60
12164;DHT22;6145;50.192;10.064;2022-09-06T02:59:01;19.20;53.80
12164;DHT22;6145;50.192;10.064;2022-09-06T03:01:28;19.10;53.80
12164;DHT22;6145;50.192;10.064;2022-09-06T03:03:56;19.10;53.90
12164;DHT22;6145;50.192;10.064;2022-09-06T03:06:23;19.10;53.90
12164;DHT22;6145;50.192;10.064;2022-09-06T03:08:50;19.10;54.00
12164;DHT22;6145;50.192;10.064;2022-09-06T03:11:17;19.10;54.10
12164;DHT22;6145;50.192;10.064;2022-09-06T03:13:43;19.10;54.10
12164;DHT22;6145;50.192;10.064;2022-09-06T03:16:10;19.10;54.20
12164;DHT22;6145;50.192;10.064;2022-09-06T03:18:37;19.00;54.20
12164;DHT22;6145;50.192;10.064;2022-09-06T03:21:05;19.00;54.50
12164;DHT22;6145;50.192;10.064;2022-09-06T03:23:32;19.10;54.60
12164;DHT22;6145;50.192;10.064;2022-09-06T03:25:59;19.00;54.60
12164;DHT22;6145;50.192;10.064;2022-09-06T03:28:25;19.00;54.70
12164;DHT22;6145;50.192;10.064;2022-09-06T03:30:52;19.00;54.70
12164;DHT22;6145;50.192;10.064;2022-09-06T03:33:20;19.00;54.70
12164;DHT22;6145;50.192;10.064;2022-09-06T03:35:48;19.00;54.80
12164;DHT22;6145;50.192;10.064;2022-09-06T03:38:17;19.00;54.90
12164;DHT22;6145;50.192;10.064;2022-09-06T03:40:45;19.00;55.00
12164;DHT22;6145;50.192;10.064;2022-09-06T03:43:12;19.00;55.10
12164;DHT22;6145;50.192;10.064;2022-09-06T03:45:39;18.90;55.00
12164;DHT22;6145;50.192;10.064;2022-09-06T03:48:05;18.90;55.70
12164;DHT22;6145;50.192;10.064;2022-09-06T03:50:32;18.90;55.10
12164;DHT22;6145;50.192;10.064;2022-09-06T03:52:59;18.90;55.20
12164;DHT22;6145;50.192;10.064;2022-09-06T03:55:27;18.90;55.20
12164;DHT22;6145;50.192;10.064;2022-09-06T03:57:54;18.90;55.30
12164;DHT22;6145;50.192;10.064;2022-09-06T04:00:21;18.90;55.30
12164;DHT22;6145;50.192;10.064;2022-09-06T04:02:48;18.90;55.50
12164;DHT22;6145;50.192;10.064;2022-09-06T04:05:15;18.90;55.50
12164;DHT22;6145;50.192;10.064;2022-09-06T04:07:42;18.90;55.60
12164;DHT22;6145;50.192;10.064;2022-09-06T04:10:09;18.90;56.10
12164;DHT22;6145;50.192;10.064;2022-09-06T04:12:37;18.90;56.60
12164;DHT22;6145;50.192;10.064;2022-09-06T04:15:05;18.90;56.50
12164;DHT22;6145;50.192;10.064;2022-09-06T04:17:32;18.90;56.50
12164;DHT22;6145;50.192;10.064;2022-09-06T04:19:58;18.90;56.60
12164;DHT22;6145;50.192;10.064;2022-09-06T04:22:25;18.90;57.00
12164;DHT22;6145;50.192;10.064;2022-09-06T04:24:52;18.90;57.10
12164;DHT22;6145;50.192;10.064;2022-09-06T04:27:19;18.90;56.90
12164;DHT22;6145;50.192;10.064;2022-09-06T04:29:47;18.90;57.40
12164;DHT22;6145;50.192;10.064;2022-09-06T04:32:13;18.90;57.70
12164;DHT22;6145;50.192;10.064;2022-09-06T04:34:40;18.80;57.50
12164;DHT22;6145;50.192;10.064;2022-09-06T04:37:07;18.80;57.30
12164;DHT22;6145;50.192;10.064;2022-09-06T04:39:33;18.80;57.20
12164;DHT22;6145;50.192;10.064;2022-09-06T04:42:00;18.90;57.20
12164;DHT22;6145;50.192;10.064;2022-09-06T04:44:27;18.90;57.20
12164;DHT22;6145;50.192;10.064;2022-09-06T04:47:03;18.90;57.20
12164;DHT22;6145;50.192;10.064;2022-09-06T04:49:30;18.90;57.00
12164;DHT22;6145;50.192;10.064;2022-09-06T04:51:57;18.80;56.90
12164;DHT22;6145;50.192;10.064;2022-09-06T04:54:24;18.80;56.90
12164;DHT22;6145;50.192;10.064;2022-09-06T04:56:51;18.80;57.20
12164;DHT22;6145;50.192;10.064;2022-09-06T04:59:17;18.90;58.00
12164;DHT22;6145;50.192;10.064;2022-09-06T05:01:44;18.80;57.70
12164;DHT22;6145;50.192;10.064;2022-09-06T05:04:12;18.80;57.60
12164;DHT22;6145;50.192;10.064;2022-09-06T05:06:39;18.80;57.50
12164;DHT22;6145;50.192;10.064;2022-09-06T05:09:06;18.80;57.40
12164;DHT22;6145;50.192;10.064;2022-09-06T05:11:33;18.80;57.30
12164;DHT22;6145;50.192;10.064;2022-09-06T05:13:59;18.80;57.30
12164;DHT22;6145;50.192;10.064;2022-09-06T05:16:26;18.80;57.30
12164;DHT22;6145;50.192;10.064;2022-09-06T05:18:53;18.80;57.30
12164;DHT22;6145;50.192;10.064;2022-09-06T05:21:21;18.80;57.60
12164;DHT22;6145;50.192;10.064;2022-09-06T05:23:48;18.80;57.70
12164;DHT22;6145;50.192;10.064;2022-09-06T05:26:15;18.90;57.60
12164;DHT22;6145;50.192;10.064;2022-09-06T05:28:41;18.90;57.60
12164;DHT22;6145;50.192;10.064;2022-09-06T05:31:10;18.80;57.60
12164;DHT22;6145;50.192;10.064;2022-09-06T05:33:37;18.90;57.70
12164;DHT22;6145;50.192;10.064;2022-09-06T05:36:05;18.80;57.60
12164;DHT22;6145;50.192;10.064;2022-09-06T05:38:33;18.80;57.50
12164;DHT22;6145;50.192;10.064;2022-09-06T05:41:00;18.90;57.70
12164;DHT22;6145;50.192;10.064;2022-09-06T05:43:27;18.80;57.60
12164;DHT22;6145;50.192;10.064;2022-09-06T05:45:53;18.80;57.60
12164;DHT22;6145;50.192;10.064;2022-09-06T05:48:20;18.90;57.70
12164;DHT22;6145;50.192;10.064;2022-09-06T05:50:47;18.80;58.20
12164;DHT22;6145;50.192;10.064;2022-09-06T05:53:14;18.90;58.10
12164;DHT22;6145;50.192;10.064;2022-09-06T05:55:42;18.90;58.10
12164;DHT22;6145;50.192;10.064;2022-09-06T05:58:09;18.90;58.20
12164;DHT22;6145;50.192;10.064;2022-09-06T06:00:35;18.90;58.20
12164;DHT22;6145;50.192;10.064;2022-09-06T06:03:02;18.90;58.00
12164;DHT22;6145;50.192;10.064;2022-09-06T06:05:29;18.90;58.00
12164;DHT22;6145;50.192;10.064;2022-09-06T06:07:56;18.90;58.00
12164;DHT22;6145;50.192;10.064;2022-09-06T06:10:24;18.90;58.00
12164;DHT22;6145;50.192;10.064;2022-09-06T06:12:52;18.90;58.00
12164;DHT22;6145;50.192;10.064;2022-09-06T06:15:19;18.90;58.20
12164;DHT22;6145;50.192;10.064;2022-09-06T06:17:45;18.90;58.20
12164;DHT22;6145;50.192;10.064;2022-09-06T06:20:12;19.00;58.40
12164;DHT22;6145;50.192;10.064;2022-09-06T06:22:39;19.00;58.80
12164;DHT22;6145;50.192;10.064;2022-09-06T06:25:06;19.00;58.80
12164;DHT22;6145;50.192;10.064;2022-09-06T06:27:33;19.00;59.00
12164;DHT22;6145;50.192;10.064;2022-09-06T06:30:03;19.00;58.80
12164;DHT22;6145;50.192;10.064;2022-09-06T06:32:30;19.00;59.30
12164;DHT22;6145;50.192;10.064;2022-09-06T06:34:57;19.00;59.70
12164;DHT22;6145;50.192;10.064;2022-09-06T06:37:23;19.00;59.70
12164;DHT22;6145;50.192;10.064;2022-09-06T06:39:50;19.00;60.20
12164;DHT22;6145;50.192;10.064;2022-09-06T06:42:17;19.00;60.00
12164;DHT22;6145;50.192;10.064;2022-09-06T06:44:44;19.10;59.90
12164;DHT22;6145;50.192;10.064;2022-09-06T06:47:12;19.10;59.90
12164;DHT22;6145;50.192;10.064;2022-09-06T06:49:39;19.10;59.60
12164;DHT22;6145;50.192;10.064;2022-09-06T06:52:06;19.10;59.60
12164;DHT22;6145;50.192;10.064;2022-09-06T06:54:33;19.10;60.20
12164;DHT22;6145;50.192;10.064;2022-09-06T06:57:01;19.10;60.10
12164;DHT22;6145;50.192;10.064;2022-09-06T06:59:28;19.20;60.20
12164;DHT22;6145;50.192;10.064;2022-09-06T07:01:55;19.20;60.30
12164;DHT22;6145;50.192;10.064;2022-09-06T07:04:24;19.30;60.30
12164;DHT22;6145;50.192;10.064;2022-09-06T07:06:52;19.30;60.00
12164;DHT22;6145;50.192;10.064;2022-09-06T07:09:19;19.40;60.00
12164;DHT22;6145;50.192;10.064;2022-09-06T07:11:47;19.40;59.90
12164;DHT22;6145;50.192;10.064;2022-09-06T07:14:14;19.50;59.90
12164;DHT22;6145;50.192;10.064;2022-09-06T07:16:41;19.50;59.70
12164;DHT22;6145;50.192;10.064;2022-09-06T07:19:08;19.60;59.70
12164;DHT22;6145;50.192;10.064;2022-09-06T07:21:37;19.60;59.70
12164;DHT22;6145;50.192;10.064;2022-09-06T07:24:05;19.60;59.50
12164;DHT22;6145;50.192;10.064;2022-09-06T07:26:33;19.70;59.70
12164;DHT22;6145;50.192;10.064;2022-09-06T07:29:01;19.70;59.60
12164;DHT22;6145;50.192;10.064;2022-09-06T07:31:29;19.80;59.70
12164;DHT22;6145;50.192;10.064;2022-09-06T07:33:56;19.80;59.50
12164;DHT22;6145;50.192;10.064;2022-09-06T07:36:24;19.90;59.90
12164;DHT22;6145;50.192;10.064;2022-09-06T07:38:52;19.90;59.70
12164;DHT22;6145;50.192;10.064;2022-09-06T07:41:19;20.00;59.80
12164;DHT22;6145;50.192;10.064;2022-09-06T07:43:47;20.10;59.70
12164;DHT22;6145;50.192;10.064;2022-09-06T07:46:17;20.10;59.60
12164;DHT22;6145;50.192;10.064;2022-09-06T07:48:45;20.10;59.70
12164;DHT22;6145;50.192;10.064;2022-09-06T07:51:13;20.20;59.50
12164;DHT22;6145;50.192;10.064;2022-09-06T07:53:42;20.20;59.50
12164;DHT22;6145;50.192;10.064;2022-09-06T07:56:11;20.30;59.50
12164;DHT22;6145;50.192;10.064;2022-09-06T07:58:38;20.30;59.50
12164;DHT22;6145;50.192;10.064;2022-09-06T08:01:24;20.40;59.50
12164;DHT22;6145;50.192;10.064;2022-09-06T08:03:52;20.50;60.00
12164;DHT22;6145;50.192;10.064;2022-09-06T08:06:20;20.60;59.90
12164;DHT22;6145;50.192;10.064;2022-09-06T08:08:47;20.60;60.00
12164;DHT22;6145;50.192;10.064;2022-09-06T08:11:16;20.70;60.10
12164;DHT22;6145;50.192;10.064;2022-09-06T08:13:43;20.80;59.90
12164;DHT22;6145;50.192;10.064;2022-09-06T08:16:10;20.90;59.90
12164;DHT22;6145;50.192;10.064;2022-09-06T08:18:38;21.00;60.10
12164;DHT22;6145;50.192;10.064;2022-09-06T08:21:09;21.10;60.00
12164;DHT22;6145;50.192;10.064;2022-09-06T08:23:37;21.30;60.20
12164;DHT22;6145;50.192;10.064;2022-09-06T08:26:04;21.40;60.00
12164;DHT22;6145;50.192;10.064;2022-09-06T08:28:32;21.50;59.90
12164;DHT22;6145;50.192;10.064;2022-09-06T08:31:06;21.60;59.90
12164;DHT22;6145;50.192;10.064;2022-09-06T08:33:33;21.70;59.70
12164;DHT22;6145;50.192;10.064;2022-09-06T08:36:00;21.80;59.60
12164;DHT22;6145;50.192;10.064;2022-09-06T08:38:28;22.00;59.50
12164;DHT22;6145;50.192;10.064;2022-09-06T08:41:05;22.10;59.50
12164;DHT22;6145;50.192;10.064;2022-09-06T08:43:35;22.30;59.50
12164;DHT22;6145;50.192;10.064;2022-09-06T08:46:03;22.40;59.40
12164;DHT22;6145;50.192;10.064;2022-09-06T08:48:32;22.50;59.00
12164;DHT22;6145;50.192;10.064;2022-09-06T08:54:02;22.80;58.60
12164;DHT22;6145;50.192;10.064;2022-09-06T08:56:34;22.90;58.60
12164;DHT22;6145;50.192;10.064;2022-09-06T08:59:06;23.00;58.40
12164;DHT22;6145;50.192;10.064;2022-09-06T09:01:43;23.10;58.10
12164;DHT22;6145;50.192;10.064;2022-09-06T09:04:19;23.30;58.00
12164;DHT22;6145;50.192;10.064;2022-09-06T09:06:50;23.40;57.80
12164;DHT22;6145;50.192;10.064;2022-09-06T09:09:19;23.50;57.60
12164;DHT22;6145;50.192;10.064;2022-09-06T09:11:49;23.70;57.60
12164;DHT22;6145;50.192;10.064;2022-09-06T09:14:21;23.80;57.30
12164;DHT22;6145;50.192;10.064;2022-09-06T09:16:51;24.00;57.10
12164;DHT22;6145;50.192;10.064;2022-09-06T09:19:20;24.00;56.90
12164;DHT22;6145;50.192;10.064;2022-09-06T09:21:47;24.10;56.70
12164;DHT22;6145;50.192;10.064;2022-09-06T09:24:14;24.30;56.50
12164;DHT22;6145;50.192;10.064;2022-09-06T09:26:48;24.40;56.30
12164;DHT22;6145;50.192;10.064;2022-09-06T09:29:16;24.50;56.00
12164;DHT22;6145;50.192;10.064;2022-09-06T09:31:47;24.60;55.90
12164;DHT22;6145;50.192;10.064;2022-09-06T09:34:27;24.80;55.70
12164;DHT22;6145;50.192;10.064;2022-09-06T09:37:09;24.90;55.40
12164;DHT22;6145;50.192;10.064;2022-09-06T09:39:38;25.00;55.20
12164;DHT22;6145;50.192;10.064;2022-09-06T09:42:06;25.10;55.10
12164;DHT22;6145;50.192;10.064;2022-09-06T09:44:35;25.20;55.30
12164;DHT22;6145;50.192;10.064;2022-09-06T09:47:23;25.30;54.50
12164;DHT22;6145;50.192;10.064;2022-09-06T09:49:50;25.50;54.10
12164;DHT22;6145;50.192;10.064;2022-09-06T09:52:23;25.50;54.00
12164;DHT22;6145;50.192;10.064;2022-09-06T09:54:52;25.70;53.70
12164;DHT22;6145;50.192;10.064;2022-09-06T09:57:21;25.70;53.40
12164;DHT22;6145;50.192;10.064;2022-09-06T09:59:51;25.90;53.30
12164;DHT22;6145;50.192;10.064;2022-09-06T10:02:24;26.00;53.00
12164;DHT22;6145;50.192;10.064;2022-09-06T10:04:52;26.10;52.80
12164;DHT22;6145;50.192;10.064;2022-09-06T10:07:24;26.20;52.60
12164;DHT22;6145;50.192;10.064;2022-09-06T10:09:57;26.30;52.50
12164;DHT22;6145;50.192;10.064;2022-09-06T10:12:28;26.30;52.00
12164;DHT22;6145;50.192;10.064;2022-09-06T10:14:56;26.50;51.70
12164;DHT22;6145;50.192;10.064;2022-09-06T10:17:30;26.60;51.60
12164;DHT22;6145;50.192;10.064;2022-09-06T10:20:00;26.70;51.00
12164;DHT22;6145;50.192;10.064;2022-09-06T10:22:30;26.80;50.50
12164;DHT22;6145;50.192;10.064;2022-09-06T10:25:20;26.90;50.10
12164;DHT22;6145;50.192;10.064;2022-09-06T10:33:50;27.10;49.50
12164;DHT22;6145;50.192;10.064;2022-09-06T10:36:21;27.20;49.40
12164;DHT22;6145;50.192;10.064;2022-09-06T10:38:52;27.30;48.90
12164;DHT22;6145;50.192;10.064;2022-09-06T10:41:33;27.30;48.70
12164;DHT22;6145;50.192;10.064;2022-09-06T10:44:12;27.40;49.40
12164;DHT22;6145;50.192;10.064;2022-09-06T10:46:43;27.50;48.60
12164;DHT22;6145;50.192;10.064;2022-09-06T10:49:15;27.60;48.70
12164;DHT22;6145;50.192;10.064;2022-09-06T10:51:45;27.70;48.50
12164;DHT22;6145;50.192;10.064;2022-09-06T10:54:16;27.70;48.30
12164;DHT22;6145;50.192;10.064;2022-09-06T10:56:50;27.80;48.10
12164;DHT22;6145;50.192;10.064;2022-09-06T10:59:21;28.00;48.20
12164;DHT22;6145;50.192;10.064;2022-09-06T11:01:56;28.00;47.90
12164;DHT22;6145;50.192;10.064;2022-09-06T11:04:29;28.10;47.60
12164;DHT22;6145;50.192;10.064;2022-09-06T11:06:59;28.10;46.60
12164;DHT22;6145;50.192;10.064;2022-09-06T11:09:32;28.20;46.60
12164;DHT22;6145;50.192;10.064;2022-09-06T11:12:05;28.30;46.40
12164;DHT22;6145;50.192;10.064;2022-09-06T11:14:34;28.40;46.10
12164;DHT22;6145;50.192;10.064;2022-09-06T11:17:04;28.40;45.60
12164;DHT22;6145;50.192;10.064;2022-09-06T11:19:38;28.40;45.00
12164;DHT22;6145;50.192;10.064;2022-09-06T11:22:43;28.60;44.90
12164;DHT22;6145;50.192;10.064;2022-09-06T11:25:38;28.60;44.30
12164;DHT22;6145;50.192;10.064;2022-09-06T11:28:11;28.60;44.20
12164;DHT22;6145;50.192;10.064;2022-09-06T11:30:43;28.70;44.60
12164;DHT22;6145;50.192;10.064;2022-09-06T11:33:19;28.70;44.50
12164;DHT22;6145;50.192;10.064;2022-09-06T11:35:50;28.80;44.40
12164;DHT22;6145;50.192;10.064;2022-09-06T11:38:23;28.80;44.00
12164;DHT22;6145;50.192;10.064;2022-09-06T11:40:56;29.00;44.00
12164;DHT22;6145;50.192;10.064;2022-09-06T11:43:45;29.00;43.90
12164;DHT22;6145;50.192;10.064;2022-09-06T11:49:44;29.10;43.50
12164;DHT22;6145;50.192;10.064;2022-09-06T11:55:30;29.30;43.40
12164;DHT22;6145;50.192;10.064;2022-09-06T11:58:01;29.30;43.10
12164;DHT22;6145;50.192;10.064;2022-09-06T12:00:28;29.30;43.20
12164;DHT22;6145;50.192;10.064;2022-09-06T12:02:57;29.40;43.00
12164;DHT22;6145;50.192;10.064;2022-09-06T12:05:28;29.50;43.00
12164;DHT22;6145;50.192;10.064;2022-09-06T12:11:23;29.60;42.60
12164;DHT22;6145;50.192;10.064;2022-09-06T12:13:57;29.70;42.00
12164;DHT22;6145;50.192;10.064;2022-09-06T12:19:43;29.70;41.80
12164;DHT22;6145;50.192;10.064;2022-09-06T12:25:54;29.90;41.60
12164;DHT22;6145;50.192;10.064;2022-09-06T12:28:33;29.90;41.50
12164;DHT22;6145;50.192;10.064;2022-09-06T12:31:09;30.00;41.70
12164;DHT22;6145;50.192;10.064;2022-09-06T12:33:45;30.10;41.50
12164;DHT22;6145;50.192;10.064;2022-09-06T12:36:13;30.10;41.60
12164;DHT22;6145;50.192;10.064;2022-09-06T12:38:53;30.20;41.50
12164;DHT22;6145;50.192;10.064;2022-09-06T12:41:20;30.20;41.40
12164;DHT22;6145;50.192;10.064;2022-09-06T12:43:49;30.30;41.40
12164;DHT22;6145;50.192;10.064;2022-09-06T12:46:16;30.30;41.20
12164;DHT22;6145;50.192;10.064;2022-09-06T12:49:05;30.50;40.80
12164;DHT22;6145;50.192;10.064;2022-09-06T12:51:32;30.50;40.30
12164;DHT22;6145;50.192;10.064;2022-09-06T12:54:01;30.60;39.70
12164;DHT22;6145;50.192;10.064;2022-09-06T12:56:31;30.60;40.10
12164;DHT22;6145;50.192;10.064;2022-09-06T12:59:13;30.60;39.50
12164;DHT22;6145;50.192;10.064;2022-09-06T13:01:47;30.70;39.20
12164;DHT22;6145;50.192;10.064;2022-09-06T13:04:22;30.70;38.90
12164;DHT22;6145;50.192;10.064;2022-09-06T13:06:51;30.80;39.10
12164;DHT22;6145;50.192;10.064;2022-09-06T13:09:19;30.80;39.50
12164;DHT22;6145;50.192;10.064;2022-09-06T13:11:49;30.90;38.70
12164;DHT22;6145;50.192;10.064;2022-09-06T13:14:20;30.90;38.50
12164;DHT22;6145;50.192;10.064;2022-09-06T13:16:50;30.90;38.20
12164;DHT22;6145;50.192;10.064;2022-09-06T13:19:28;31.00;38.30
12164;DHT22;6145;50.192;10.064;2022-09-06T13:21:55;31.00;37.90
12164;DHT22;6145;50.192;10.064;2022-09-06T13:24:24;31.10;38.20
12164;DHT22;6145;50.192;10.064;2022-09-06T13:26:52;31.20;38.60
12164;DHT22;6145;50.192;10.064;2022-09-06T13:29:28;31.30;38.50
12164;DHT22;6145;50.192;10.064;2022-09-06T13:31:56;31.30;37.90
12164;DHT22;6145;50.192;10.064;2022-09-06T13:34:24;31.30;37.50
12164;DHT22;6145;50.192;10.064;2022-09-06T13:36:54;31.50;37.80
12164;DHT22;6145;50.192;10.064;2022-09-06T13:39:28;31.50;37.70
12164;DHT22;6145;50.192;10.064;2022-09-06T13:41:59;31.50;37.60
12164;DHT22;6145;50.192;10.064;2022-09-06T13:44:30;31.60;37.50
12164;DHT22;6145;50.192;10.064;2022-09-06T13:46:57;31.70;37.20
12164;DHT22;6145;50.192;10.064;2022-09-06T13:49:24;31.70;37.20
12164;DHT22;6145;50.192;10.064;2022-09-06T13:51:53;31.70;37.20
12164;DHT22;6145;50.192;10.064;2022-09-06T13:54:20;31.80;37.20
12164;DHT22;6145;50.192;10.064;2022-09-06T13:56:48;31.80;37.20
12164;DHT22;6145;50.192;10.064;2022-09-06T13:59:15;31.90;37.30
12164;DHT22;6145;50.192;10.064;2022-09-06T14:01:45;31.90;37.20
12164;DHT22;6145;50.192;10.064;2022-09-06T14:04:16;31.90;37.30
12164;DHT22;6145;50.192;10.064;2022-09-06T14:06:46;32.00;37.30
12164;DHT22;6145;50.192;10.064;2022-09-06T14:09:13;32.00;37.10
12164;DHT22;6145;50.192;10.064;2022-09-06T14:11:40;32.00;36.70
12164;DHT22;6145;50.192;10.064;2022-09-06T14:14:07;32.00;36.50
12164;DHT22;6145;50.192;10.064;2022-09-06T14:16:35;32.00;36.10
12164;DHT22;6145;50.192;10.064;2022-09-06T14:19:04;31.90;36.20
12164;DHT22;6145;50.192;10.064;2022-09-06T14:21:31;31.90;36.50
12164;DHT22;6145;50.192;10.064;2022-09-06T14:23:57;31.90;36.50
12164;DHT22;6145;50.192;10.064;2022-09-06T14:26:25;31.90;36.80
12164;DHT22;6145;50.192;10.064;2022-09-06T14:28:52;31.90;37.00
12164;DHT22;6145;50.192;10.064;2022-09-06T14:31:20;31.70;37.00
12164;DHT22;6145;50.192;10.064;2022-09-06T14:33:47;31.70;37.40
12164;DHT22;6145;50.192;10.064;2022-09-06T14:36:18;31.70;37.20
12164;DHT22;6145;50.192;10.064;2022-09-06T14:38:46;31.70;37.30
12164;DHT22;6145;50.192;10.064;2022-09-06T14:41:14;31.70;37.20
12164;DHT22;6145;50.192;10.064;2022-09-06T14:43:43;31.60;37.00
12164;DHT22;6145;50.192;10.064;2022-09-06T14:46:11;31.50;37.00
12164;DHT22;6145;50.192;10.064;2022-09-06T14:48:39;31.50;37.30
12164;DHT22;6145;50.192;10.064;2022-09-06T14:51:07;31.40;37.20
12164;DHT22;6145;50.192;10.064;2022-09-06T14:53:37;31.50;37.40
12164;DHT22;6145;50.192;10.064;2022-09-06T14:56:04;31.50;37.40
12164;DHT22;6145;50.192;10.064;2022-09-06T14:58:31;31.50;37.40
12164;DHT22;6145;50.192;10.064;2022-09-06T15:01:06;31.50;37.40
12164;DHT22;6145;50.192;10.064;2022-09-06T15:03:33;31.50;37.30
12164;DHT22;6145;50.192;10.064;2022-09-06T15:06:01;31.50;37.20
12164;DHT22;6145;50.192;10.064;2022-09-06T15:08:28;31.40;37.30
12164;DHT22;6145;50.192;10.064;2022-09-06T15:10:56;31.50;37.30
12164;DHT22;6145;50.192;10.064;2022-09-06T15:13:23;31.50;37.10
12164;DHT22;6145;50.192;10.064;2022-09-06T15:15:51;31.50;37.30
12164;DHT22;6145;50.192;10.064;2022-09-06T15:18:18;31.50;38.10
12164;DHT22;6145;50.192;10.064;2022-09-06T15:20:44;31.40;37.40
12164;DHT22;6145;50.192;10.064;2022-09-06T15:23:11;31.30;37.40
12164;DHT22;6145;50.192;10.064;2022-09-06T15:25:44;31.30;37.60
12164;DHT22;6145;50.192;10.064;2022-09-06T15:28:12;31.30;37.90
12164;DHT22;6145;50.192;10.064;2022-09-06T15:30:39;31.30;38.00
12164;DHT22;6145;50.192;10.064;2022-09-06T15:33:06;31.30;38.00
12164;DHT22;6145;50.192;10.064;2022-09-06T15:35:35;31.20;37.70
12164;DHT22;6145;50.192;10.064;2022-09-06T15:38:02;31.30;37.80
12164;DHT22;6145;50.192;10.064;2022-09-06T15:40:29;31.20;37.60
12164;DHT22;6145;50.192;10.064;2022-09-06T15:42:55;31.20;37.70
12164;DHT22;6145;50.192;10.064;2022-09-06T15:45:24;31.20;37.40
12164;DHT22;6145;50.192;10.064;2022-09-06T15:47:52;31.30;37.30
12164;DHT22;6145;50.192;10.064;2022-09-06T15:50:19;31.20;37.20
12164;DHT22;6145;50.192;10.064;2022-09-06T15:52:46;31.10;36.80
12164;DHT22;6145;50.192;10.064;2022-09-06T15:55:13;31.20;37.20
12164;DHT22;6145;50.192;10.064;2022-09-06T15:57:57;31.20;37.00
12164;DHT22;6145;50.192;10.064;2022-09-06T16:00:25;31.20;36.80
12164;DHT22;6145;50.192;10.064;2022-09-06T16:02:52;31.20;36.80
12164;DHT22;6145;50.192;10.064;2022-09-06T16:05:19;31.20;36.50
12164;DHT22;6145;50.192;10.064;2022-09-06T16:07:46;31.20;36.00
12164;DHT22;6145;50.192;10.064;2022-09-06T16:10:12;31.20;36.00
12164;DHT22;6145;50.192;10.064;2022-09-06T16:12:40;31.20;35.80
12164;DHT22;6145;50.192;10.064;2022-09-06T16:15:07;31.30;36.10